Time;durP1;ratioP1;P1;durP2;ratioP2;P2;SDS_P1;SDS_P2;PMS_P1;PMS_P2;Temp;Humidity;BMP_temperature;BMP_pressure;BME280_temperature;BME280_humidity;BME280_pressure;Samples;Min_cycle;Max_cycle;Signal;HPM_P1;HPM_P2
2022/10/24 10:38:50;;;;;;;8.77;4.63;;;20.30;99.90;;;;;;4247621;28;20053;-85
2022/10/24 10:41:24;;;;;;;6.93;6.20;;;20.20;99.90;;;;;;4247701;28;20069;-85
2022/10/24 10:44:14;;;;;;;6.35;5.80;;;20.40;99.90;;;;;;4247384;28;20054;-87
2022/10/24 10:47:04;;;;;;;5.20;4.93;;;20.60;99.90;;;;;;4247523;28;20067;-85
2022/10/24 10:49:41;;;;;;;5.25;4.68;;;20.50;99.90;;;;;;4212022;28;20073;-86
2022/10/24 10:52:12;;;;;;;5.43;5.13;;;20.40;99.90;;;;;;4234619;28;20074;-86
2022/10/24 10:54:46;;;;;;;4.65;4.45;;;20.40;99.90;;;;;;4235165;28;20059;-87
2022/10/24 10:57:15;;;;;;;4.60;4.30;;;20.50;99.90;;;;;;4247510;28;20465;-86
2022/10/24 10:59:59;;;;;;;5.38;4.28;;;20.40;99.90;;;;;;4247441;28;20054;-86
2022/10/24 11:02:44;;;;;;;5.65;4.47;;;20.50;99.90;;;;;;4247404;28;20108;-87
2022/10/24 11:05:26;;;;;;;5.00;4.60;;;20.60;99.90;;;;;;4238086;28;20043;-86
2022/10/24 11:08:11;;;;;;;9.50;4.30;;;20.80;99.90;;;;;;4250357;28;20353;-87
2022/10/24 11:10:44;;;;;;;5.25;4.85;;;20.70;99.90;;;;;;4250142;28;20076;-87
2022/10/24 11:13:11;;;;;;;4.50;4.13;;;20.70;99.90;;;;;;4249055;28;20047;-87
2022/10/24 11:15:36;;;;;;;5.07;4.47;;;20.70;99.90;;;;;;4249152;28;20047;-87
2022/10/24 11:18:13;;;;;;;5.65;5.20;;;20.60;99.90;;;;;;4248969;28;20536;-86
2022/10/24 11:20:50;;;;;;;6.03;5.47;;;20.70;99.90;;;;;;4249369;28;20051;-86
2022/10/24 11:23:30;;;;;;;4.53;4.25;;;20.60;99.90;;;;;;4248847;28;20305;-86
2022/10/24 11:25:56;;;;;;;4.32;4.00;;;20.30;99.90;;;;;;4233118;28;20055;-86
2022/10/24 11:28:31;;;;;;;5.45;4.95;;;20.40;99.90;;;;;;4248593;28;20092;-87
2022/10/24 11:30:59;;;;;;;4.55;4.20;;;20.40;99.90;;;;;;4232575;28;20361;-85
2022/10/24 11:33:28;;;;;;;5.72;4.40;;;20.30;99.90;;;;;;4249116;28;20103;-86
2022/10/24 11:36:00;;;;;;;6.00;5.50;;;20.20;99.90;;;;;;4233345;28;20062;-86
2022/10/24 11:38:23;;;;;;;5.55;5.07;;;20.50;99.90;;;;;;4248760;28;20038;-85
2022/10/24 11:40:46;;;;;;;5.47;4.78;;;20.60;99.90;;;;;;4235188;28;20096;-85
2022/10/24 11:43:27;;;;;;;5.90;4.15;;;20.30;99.90;;;;;;4248728;28;20046;-85
2022/10/24 11:46:10;;;;;;;5.80;4.97;;;20.20;99.90;;;;;;4238920;28;20254;-86
2022/10/24 11:48:47;;;;;;;7.40;4.87;;;20.60;99.90;;;;;;4248700;28;20160;-84
2022/10/24 11:51:39;;;;;;;6.07;5.57;;;20.50;99.90;;;;;;4233082;28;20321;-84
2022/10/24 11:54:06;;;;;;;5.30;5.10;;;20.60;99.90;;;;;;4237114;28;20070;-84
2022/10/24 11:56:41;;;;;;;6.03;5.32;;;20.80;99.90;;;;;;4235539;28;20358;-85
2022/10/24 11:59:04;;;;;;;5.30;4.28;;;20.60;99.90;;;;;;4232880;28;20051;-85
2022/10/24 12:02:01;;;;;;;4.53;4.43;;;20.40;99.90;;;;;;4248435;28;20053;-84
2022/10/24 12:04:46;;;;;;;9.20;5.32;;;20.30;99.90;;;;;;4248194;28;20085;-84
2022/10/24 12:07:11;;;;;;;8.57;5.45;;;20.10;99.90;;;;;;4235545;28;20103;-81
2022/10/24 12:09:51;;;;;;;5.25;5.05;;;20.50;99.90;;;;;;4249421;28;20115;-81
2022/10/24 12:12:20;;;;;;;5.70;5.35;;;21.00;99.90;;;;;;4233750;28;20058;-81
2022/10/24 12:14:43;;;;;;;5.63;5.20;;;21.30;99.90;;;;;;4248988;28;20396;-81
2022/10/24 12:17:31;;;;;;;6.35;6.15;;;21.40;99.90;;;;;;4215977;28;20052;-81
2022/10/24 12:19:51;;;;;;;7.53;4.82;;;21.30;99.90;;;;;;4199006;28;20260;-81
2022/10/24 12:22:22;;;;;;;5.35;5.05;;;20.90;99.90;;;;;;4199041;28;20050;-81
2022/10/24 12:24:43;;;;;;;5.00;4.75;;;21.00;99.90;;;;;;4214024;28;20107;-82
2022/10/24 12:27:05;;;;;;;5.97;5.57;;;20.80;99.90;;;;;;4204018;28;20112;-82
2022/10/24 12:29:26;;;;;;;5.90;5.25;;;21.00;99.90;;;;;;4202710;28;20119;-81
2022/10/24 12:31:46;;;;;;;5.03;4.70;;;20.90;99.90;;;;;;4214503;28;20044;-82
2022/10/24 12:34:19;;;;;;;5.22;4.78;;;21.40;99.90;;;;;;4214527;28;20354;-81
2022/10/24 12:37:00;;;;;;;6.33;4.97;;;21.40;99.90;;;;;;4215573;28;20039;-81
2022/10/24 12:39:42;;;;;;;4.80;4.40;;;21.40;99.90;;;;;;4200042;28;20294;-81
2022/10/24 12:42:26;;;;;;;4.78;4.43;;;21.00;99.90;;;;;;4215267;28;20077;-81
2022/10/24 12:44:49;;;;;;;5.22;4.82;;;21.40;99.90;;;;;;4206742;28;20120;-81
2022/10/24 12:47:27;;;;;;;;;;;21.30;99.90;;;;;;4192183;28;20342;-81
2022/10/24 12:49:47;;;;;;;5.22;4.60;;;21.50;99.90;;;;;;4206894;28;19991;-81
2022/10/24 12:52:29;;;;;;;8.02;4.82;;;21.50;99.90;;;;;;4206854;28;20048;-81
2022/10/24 12:54:49;;;;;;;6.93;4.57;;;21.60;99.90;;;;;;4215427;28;20108;-81
2022/10/24 12:57:11;;;;;;;4.95;4.45;;;21.90;99.90;;;;;;4214803;28;20043;-81
2022/10/24 12:59:45;;;;;;;4.68;4.00;;;21.30;99.90;;;;;;4205868;28;20075;-81
2022/10/24 13:02:23;;;;;;;4.45;4.03;;;21.10;99.90;;;;;;4215027;28;20227;-81
2022/10/24 13:05:32;;;;;;;4.47;4.10;;;21.40;99.90;;;;;;4206476;28;20040;-81
2022/10/24 13:08:00;;;;;;;5.05;4.65;;;21.50;99.90;;;;;;4141288;28;20045;-81
2022/10/24 13:10:43;;;;;;;4.03;3.83;;;21.10;99.90;;;;;;4147430;28;20052;-80
2022/10/24 13:13:05;;;;;;;8.00;4.47;;;21.10;99.90;;;;;;4134829;28;20244;-81
2022/10/24 13:15:47;;;;;;;10.38;4.75;;;21.20;99.90;;;;;;4133728;28;20080;-81
2022/10/24 13:18:22;;;;;;;5.53;5.00;;;21.20;99.90;;;;;;4151096;28;20049;-81
2022/10/24 13:20:44;;;;;;;4.45;4.07;;;21.30;99.90;;;;;;4147279;28;20056;-81
2022/10/24 13:23:26;;;;;;;5.32;4.70;;;21.30;99.90;;;;;;4137346;28;20089;-81
2022/10/24 13:25:49;;;;;;;14.52;5.43;;;21.50;99.90;;;;;;4147281;28;20057;-80
2022/10/24 13:28:24;;;;;;;3.83;3.63;;;20.90;99.90;;;;;;4148755;28;20460;-81
2022/10/24 13:31:04;;;;;;;5.28;4.90;;;20.90;99.90;;;;;;4133835;28;20154;-81
2022/10/24 13:33:45;;;;;;;5.25;4.85;;;20.90;99.90;;;;;;4125499;28;20485;-80
2022/10/24 13:36:08;;;;;;;5.30;4.88;;;20.90;99.90;;;;;;4147258;28;20207;-81
2022/10/24 13:38:28;;;;;;;;;;;21.00;99.90;;;;;;4134896;28;20093;-81
2022/10/24 13:40:48;;;;;;;6.38;4.25;;;20.90;99.90;;;;;;4147154;28;19928;-81
2022/10/24 13:43:20;;;;;;;5.05;4.65;;;21.30;99.90;;;;;;4155345;28;20093;-80
2022/10/24 13:45:40;;;;;;;5.88;5.10;;;21.40;99.90;;;;;;4214556;28;20043;-81
2022/10/24 13:48:18;;;;;;;13.27;5.22;;;21.30;99.90;;;;;;4214465;28;20043;-81
2022/10/24 13:50:57;;;;;;;7.90;4.75;;;21.10;99.90;;;;;;4199291;28;20154;-81
2022/10/24 13:53:24;;;;;;;5.28;4.50;;;21.30;99.90;;;;;;4198701;28;20096;-81
2022/10/24 13:55:51;;;;;;;4.68;4.28;;;21.50;99.90;;;;;;4214240;28;20392;-81
2022/10/24 13:58:19;;;;;;;6.65;4.03;;;21.70;99.90;;;;;;4202518;28;20070;-81
2022/10/24 14:00:42;;;;;;;5.97;4.38;;;21.50;99.90;;;;;;4198927;28;20043;-81
2022/10/24 14:03:21;;;;;;;4.25;4.05;;;21.60;99.90;;;;;;4213971;28;20127;-81
2022/10/24 14:06:03;;;;;;;8.63;3.80;;;21.60;99.90;;;;;;4213988;28;20299;-81
2022/10/24 14:08:33;;;;;;;6.05;4.78;;;21.50;99.90;;;;;;4197914;28;20232;-81
2022/10/24 14:10:54;;;;;;;4.13;3.88;;;21.80;99.90;;;;;;4213155;28;20070;-81
2022/10/24 14:13:19;;;;;;;6.93;5.03;;;21.70;99.90;;;;;;4212541;28;20117;-81
2022/10/24 14:15:49;;;;;;;5.65;3.67;;;21.60;99.90;;;;;;4203778;28;20397;-81
2022/10/24 14:18:13;;;;;;;7.07;4.95;;;21.50;99.90;;;;;;4197384;28;20135;-81
2022/10/24 14:22:57;;;;;;;5.75;4.07;;;21.40;99.90;;;;;;1200572;22;20407;-81
2022/10/24 14:25:34;;;;;;;8.65;5.22;;;21.30;99.90;;;;;;4188113;28;20071;-82
2022/10/24 14:27:56;;;;;;;5.30;5.07;;;21.30;99.90;;;;;;4180312;28;20107;-81
2022/10/24 14:30:21;;;;;;;6.03;5.20;;;21.20;99.90;;;;;;4180006;28;20052;-81
2022/10/24 14:32:40;;;;;;;4.60;4.07;;;21.00;99.90;;;;;;4173715;28;20382;-81
2022/10/24 14:35:00;;;;;;;4.53;4.18;;;20.90;99.90;;;;;;4180397;28;20048;-81
2022/10/24 14:37:35;;;;;;;4.35;4.03;;;20.70;99.90;;;;;;4172282;28;20036;-82
2022/10/24 14:39:56;;;;;;;4.28;3.90;;;20.80;99.90;;;;;;4181645;28;20271;-81
2022/10/24 14:42:17;;;;;;;3.70;3.42;;;20.60;99.90;;;;;;4181791;28;20048;-82
2022/10/24 14:44:37;;;;;;;6.60;4.15;;;20.60;99.90;;;;;;4172336;28;20052;-82
2022/10/24 14:47:17;;;;;;;4.28;4.05;;;20.60;99.90;;;;;;4167057;28;20352;-81
2022/10/24 14:49:37;;;;;;;3.45;3.13;;;20.70;99.90;;;;;;4171781;28;20076;-81
2022/10/24 14:52:07;;;;;;;3.85;3.58;;;20.60;99.90;;;;;;4173047;28;20488;-81
2022/10/24 14:54:33;;;;;;;4.63;3.83;;;20.60;99.90;;;;;;4343302;22;20035;-85
2022/10/24 14:56:53;;;;;;;4.35;3.45;;;20.50;99.90;;;;;;4139303;28;20085;-84
2022/10/24 14:59:36;;;;;;;4.05;3.58;;;20.60;99.90;;;;;;4154551;28;20129;-85
2022/10/24 15:01:59;;;;;;;5.50;4.97;;;20.60;99.90;;;;;;4156738;28;20091;-85
2022/10/24 15:04:46;;;;;;;4.18;3.90;;;20.60;99.90;;;;;;4141712;28;20073;-85
2022/10/24 15:07:21;;;;;;;5.00;4.70;;;20.60;99.90;;;;;;4154871;28;20053;-85
2022/10/24 15:09:56;;;;;;;7.35;3.50;;;20.50;99.90;;;;;;4156247;28;20261;-84
2022/10/24 15:12:37;;;;;;;2.88;2.75;;;20.40;99.90;;;;;;4138685;28;20054;-84
2022/10/24 15:15:17;;;;;;;5.93;3.53;;;20.30;99.90;;;;;;4140635;28;20073;-85
2022/10/24 15:17:42;;;;;;;4.10;3.75;;;20.30;99.90;;;;;;4153877;28;20251;-85
2022/10/24 15:20:04;;;;;;;3.65;3.53;;;20.30;99.90;;;;;;4153290;28;20048;-84
2022/10/24 15:22:37;;;;;;;5.07;4.22;;;20.30;99.90;;;;;;4156931;28;20069;-84
2022/10/24 15:30:21;;;;;;;4.43;3.88;;;20.20;99.90;;;;;;4131563;28;20292;-84
2022/10/24 15:32:42;;;;;;;7.70;4.22;;;20.10;99.90;;;;;;4132555;28;20097;-85
2022/10/24 15:35:02;;;;;;;5.43;4.07;;;20.10;99.90;;;;;;4132956;28;20045;-85
2022/10/24 15:37:24;;;;;;;5.68;3.28;;;20.00;99.90;;;;;;4131445;28;20263;-85
2022/10/24 15:39:44;;;;;;;4.65;4.30;;;20.00;99.90;;;;;;4132562;28;20121;-85
2022/10/24 15:42:04;;;;;;;4.93;4.63;;;19.90;99.90;;;;;;4131501;28;20113;-85
2022/10/24 15:44:29;;;;;;;5.70;3.53;;;19.90;99.90;;;;;;4131557;28;20050;-85
2022/10/24 15:46:49;;;;;;;4.45;4.00;;;19.80;99.90;;;;;;4132379;28;20057;-84
2022/10/24 15:49:10;;;;;;;7.00;6.38;;;19.70;99.90;;;;;;4132036;28;20073;-85
2022/10/24 15:51:30;;;;;;;9.02;5.57;;;19.70;99.90;;;;;;4131373;28;20363;-85
2022/10/24 15:53:50;;;;;;;5.72;5.22;;;19.60;99.90;;;;;;4132227;28;20129;-85
2022/10/24 15:56:11;;;;;;;13.10;7.40;;;19.60;99.90;;;;;;4133387;28;20114;-84
2022/10/24 15:58:31;;;;;;;10.05;6.63;;;19.50;99.90;;;;;;4132604;28;20058;-84
2022/10/24 16:00:51;;;;;;;7.43;4.90;;;19.40;99.90;;;;;;4133597;28;20057;-85
2022/10/24 16:03:18;;;;;;;5.93;5.07;;;19.40;99.90;;;;;;4133485;28;20102;-85
2022/10/24 16:05:41;;;;;;;4.78;3.90;;;19.30;99.90;;;;;;4133510;28;20045;-86
2022/10/24 16:08:02;;;;;;;6.70;5.00;;;19.20;99.90;;;;;;4132423;28;20058;-85
2022/10/24 16:10:22;;;;;;;4.57;4.38;;;19.10;99.90;;;;;;4132308;28;20061;-85
2022/10/24 16:12:42;;;;;;;8.05;5.05;;;19.10;99.90;;;;;;4133559;28;20062;-85
2022/10/24 16:15:02;;;;;;;10.15;4.55;;;19.10;99.90;;;;;;4132635;28;20053;-84
2022/10/24 16:17:21;;;;;;;3.67;3.55;;;19.10;99.90;;;;;;4133279;28;20053;-85
2022/10/24 16:19:41;;;;;;;4.45;4.25;;;19.00;99.90;;;;;;4133220;28;20045;-86
2022/10/24 16:22:01;;;;;;;4.88;4.47;;;19.00;99.90;;;;;;4133187;28;20288;-84
2022/10/24 16:24:21;;;;;;;6.38;5.78;;;18.90;99.90;;;;;;4118484;28;20050;-85
2022/10/24 16:26:40;;;;;;;4.63;4.35;;;18.90;99.90;;;;;;4132967;28;20226;-85
2022/10/24 16:29:00;;;;;;;6.85;6.28;;;18.90;99.90;;;;;;4133037;28;20054;-85
2022/10/24 16:31:22;;;;;;;6.55;6.05;;;18.90;99.90;;;;;;4118423;28;20050;-85
2022/10/24 16:33:42;;;;;;;;;;;18.80;99.90;;;;;;4133379;28;20244;-85
2022/10/24 16:36:02;;;;;;;8.75;6.40;;;18.80;99.90;;;;;;4118403;28;19925;-85
2022/10/24 16:38:23;;;;;;;8.85;5.65;;;18.70;99.90;;;;;;4118577;28;20134;-85
2022/10/24 16:40:45;;;;;;;6.47;5.90;;;18.70;99.90;;;;;;4122163;28;20367;-85
2022/10/24 16:43:05;;;;;;;;;;;18.50;99.90;;;;;;4133374;28;20320;-85
2022/10/24 16:45:26;;;;;;;7.43;6.72;;;18.60;99.90;;;;;;4132899;28;19925;-86
2022/10/24 16:47:46;;;;;;;9.73;6.13;;;18.60;99.90;;;;;;4132777;28;20053;-85
2022/10/24 16:50:07;;;;;;;8.00;6.68;;;18.60;99.90;;;;;;4132741;28;20396;-85
2022/10/24 16:52:27;;;;;;;8.02;6.20;;;18.60;99.90;;;;;;4131817;28;20288;-84
2022/10/24 16:54:47;;;;;;;6.35;5.82;;;18.50;99.90;;;;;;4122679;28;20058;-85
2022/10/24 16:57:07;;;;;;;6.22;5.82;;;18.50;99.90;;;;;;4132633;28;20038;-85
2022/10/24 16:59:27;;;;;;;14.48;6.15;;;18.50;99.90;;;;;;4132566;28;20109;-85
2022/10/24 17:01:47;;;;;;;6.55;5.95;;;18.40;99.90;;;;;;4132210;28;20300;-85
2022/10/24 17:04:08;;;;;;;6.72;6.07;;;18.30;99.90;;;;;;4132747;28;20049;-85
2022/10/24 17:06:28;;;;;;;11.52;6.82;;;18.30;99.90;;;;;;4134194;28;20065;-84
2022/10/24 17:08:48;;;;;;;6.53;5.93;;;18.20;99.90;;;;;;4122396;28;20113;-85
2022/10/24 17:11:10;;;;;;;9.13;6.82;;;18.10;99.90;;;;;;4111562;28;20062;-85
2022/10/24 17:13:49;;;;;;;6.60;5.97;;;18.10;99.90;;;;;;4125017;28;20037;-85
2022/10/24 17:16:10;;;;;;;6.93;6.47;;;18.10;99.90;;;;;;4119253;28;20094;-85
2022/10/24 17:18:30;;;;;;;8.57;7.72;;;18.10;99.90;;;;;;4132986;28;20065;-85
2022/10/24 17:20:53;;;;;;;8.45;7.75;;;18.00;99.90;;;;;;4131305;28;20362;-85
2022/10/24 17:23:17;;;;;;;6.07;5.82;;;18.00;99.90;;;;;;4136880;28;20054;-85
2022/10/24 17:25:37;;;;;;;8.88;7.38;;;18.00;99.90;;;;;;4140338;28;20101;-85
2022/10/24 17:27:57;;;;;;;6.65;6.25;;;18.10;99.90;;;;;;4127776;28;20057;-85
2022/10/24 17:30:26;;;;;;;9.65;6.78;;;18.30;99.90;;;;;;4132772;28;20060;-85
2022/10/24 17:32:46;;;;;;;6.22;5.90;;;18.30;99.90;;;;;;4124907;28;20082;-85
2022/10/24 17:35:07;;;;;;;6.47;5.95;;;18.30;99.90;;;;;;4129523;28;20363;-85
2022/10/24 17:38:06;;;;;;;8.88;8.18;;;18.40;99.90;;;;;;4126511;28;20042;-85
2022/10/24 17:40:39;;;;;;;10.75;6.47;;;18.50;99.90;;;;;;4097142;28;20069;-85
2022/10/24 17:43:00;;;;;;;8.68;7.13;;;18.50;99.90;;;;;;4114993;28;20082;-83
2022/10/24 17:45:22;;;;;;;7.43;6.72;;;18.40;99.90;;;;;;4132796;28;20388;-83
2022/10/24 17:47:42;;;;;;;8.20;7.55;;;18.30;99.90;;;;;;4115363;28;20054;-83
2022/10/24 17:50:02;;;;;;;7.00;6.15;;;18.30;99.90;;;;;;4123265;28;20106;-83
2022/10/24 17:52:23;;;;;;;9.07;6.32;;;18.40;99.90;;;;;;4137038;28;20036;-83
2022/10/24 17:54:42;;;;;;;6.97;6.65;;;18.40;99.90;;;;;;4137445;28;20084;-83
2022/10/24 17:57:06;;;;;;;6.75;6.35;;;18.50;99.90;;;;;;4120402;28;20045;-83
2022/10/24 17:59:25;;;;;;;6.88;6.47;;;18.40;99.90;;;;;;4124394;28;20053;-83
2022/10/24 18:01:45;;;;;;;6.50;6.00;;;18.30;99.90;;;;;;4128956;28;20102;-83
2022/10/24 18:04:05;;;;;;;11.35;6.72;;;18.20;99.90;;;;;;4128104;28;20073;-83
2022/10/24 18:06:25;;;;;;;13.05;9.25;;;18.10;99.90;;;;;;4135978;28;20053;-83
2022/10/24 18:08:47;;;;;;;13.55;7.63;;;18.10;99.90;;;;;;4118791;28;20114;-83
2022/10/24 18:11:13;;;;;;;10.32;7.90;;;18.10;99.90;;;;;;4133717;28;20045;-83
2022/10/24 18:13:35;;;;;;;8.20;7.50;;;18.20;99.90;;;;;;4131742;28;20046;-83
2022/10/24 18:15:55;;;;;;;9.60;7.22;;;18.30;99.90;;;;;;4127053;28;20073;-83
2022/10/24 18:18:15;;;;;;;6.68;6.05;;;18.30;99.90;;;;;;4127619;28;20052;-83
2022/10/24 18:20:34;;;;;;;7.40;6.70;;;18.50;99.90;;;;;;4138447;28;20053;-83
2022/10/24 18:22:54;;;;;;;5.88;5.63;;;18.40;99.90;;;;;;4124037;28;20054;-83
2022/10/24 18:25:14;;;;;;;7.80;5.68;;;18.40;99.90;;;;;;4135587;28;20053;-83
2022/10/24 18:27:40;;;;;;;6.57;6.28;;;18.20;99.90;;;;;;4119078;28;20073;-83
2022/10/24 18:29:59;;;;;;;7.55;6.72;;;18.00;99.90;;;;;;4138019;28;20106;-83
2022/10/24 18:32:19;;;;;;;7.47;6.88;;;17.90;99.90;;;;;;4142613;28;20041;-83
2022/10/24 18:34:40;;;;;;;6.47;5.97;;;17.80;99.90;;;;;;4139867;28;20061;-83
2022/10/24 18:37:00;;;;;;;7.18;6.75;;;17.70;99.90;;;;;;4137541;28;20045;-83
2022/10/24 18:39:19;;;;;;;10.40;7.22;;;17.60;99.90;;;;;;4134655;28;20241;-83
2022/10/24 18:41:47;;;;;;;8.45;7.60;;;17.50;99.90;;;;;;4137851;28;20237;-83
2022/10/24 18:44:27;;;;;;;7.13;6.63;;;17.40;99.90;;;;;;4126034;28;20054;-83
2022/10/24 18:46:48;;;;;;;6.47;6.25;;;17.40;99.90;;;;;;4123819;28;20077;-83
2022/10/24 18:49:09;;;;;;;8.98;8.15;;;17.40;99.90;;;;;;4139189;28;20108;-83
2022/10/24 18:51:58;;;;;;;11.70;9.65;;;17.40;99.90;;;;;;4133118;28;20165;-83
2022/10/24 18:54:20;;;;;;;9.55;8.65;;;17.40;99.90;;;;;;4136365;28;20072;-83
2022/10/24 18:56:41;;;;;;;9.70;7.47;;;17.40;99.90;;;;;;4124560;28;20229;-83
2022/10/24 18:59:00;;;;;;;8.07;7.28;;;17.40;99.90;;;;;;4141547;28;20050;-83
2022/10/24 19:01:46;;;;;;;8.70;7.95;;;17.40;99.90;;;;;;4140671;28;20112;-84
2022/10/24 19:04:22;;;;;;;7.75;7.18;;;17.40;99.90;;;;;;4131614;28;20041;-83
2022/10/24 19:06:42;;;;;;;10.35;7.80;;;17.40;99.90;;;;;;4134011;28;20041;-83
2022/10/24 19:09:02;;;;;;;6.88;6.43;;;17.40;99.90;;;;;;4131230;28;20053;-83
2022/10/24 19:11:23;;;;;;;7.40;6.85;;;17.40;99.90;;;;;;4128452;28;20103;-83
2022/10/24 19:13:43;;;;;;;8.73;7.70;;;17.40;99.90;;;;;;4138500;28;20046;-83
2022/10/24 19:16:03;;;;;;;8.77;7.93;;;17.40;99.90;;;;;;4138814;28;20049;-83
2022/10/24 19:18:25;;;;;;;11.65;6.97;;;17.40;99.90;;;;;;4135839;28;20225;-83
2022/10/24 19:20:45;;;;;;;7.50;6.87;;;17.40;99.90;;;;;;4134213;28;20049;-83
2022/10/24 19:23:05;;;;;;;9.63;7.55;;;17.40;99.90;;;;;;4138589;28;20311;-83
2022/10/24 19:25:24;;;;;;;11.32;6.97;;;17.40;99.90;;;;;;4140864;28;20046;-83
2022/10/24 19:27:44;;;;;;;11.27;7.38;;;17.40;99.90;;;;;;4140777;28;20225;-83
2022/10/24 19:30:05;;;;;;;8.13;7.57;;;17.40;99.90;;;;;;4115916;28;20050;-83
2022/10/24 19:32:25;;;;;;;11.98;6.88;;;17.40;99.90;;;;;;4126748;28;20053;-83
2022/10/24 19:34:45;;;;;;;10.82;7.07;;;17.50;99.90;;;;;;4121082;28;20485;-83
2022/10/24 19:37:06;;;;;;;10.35;7.47;;;17.50;99.90;;;;;;4123703;28;20374;-83
2022/10/24 19:39:28;;;;;;;8.02;7.35;;;17.60;99.90;;;;;;4126549;28;20102;-83
2022/10/24 19:41:53;;;;;;;8.88;7.93;;;17.50;99.90;;;;;;4127969;28;20119;-83
2022/10/24 19:44:13;;;;;;;7.65;6.80;;;17.50;99.90;;;;;;4122366;28;20046;-83
2022/10/24 19:46:34;;;;;;;7.20;6.53;;;17.60;99.90;;;;;;4124536;28;20322;-83
2022/10/24 19:48:54;;;;;;;7.07;6.47;;;17.60;99.90;;;;;;4121871;28;20070;-83
2022/10/24 19:51:15;;;;;;;7.35;6.82;;;17.50;99.90;;;;;;4124469;28;20078;-83
2022/10/24 19:53:35;;;;;;;7.30;6.50;;;17.50;99.90;;;;;;4126653;28;20298;-83
2022/10/24 19:55:55;;;;;;;7.82;7.25;;;17.40;99.90;;;;;;4121809;28;20042;-83
2022/10/24 19:58:20;;;;;;;6.68;6.18;;;17.50;99.90;;;;;;4131299;28;20089;-83
2022/10/24 20:00:40;;;;;;;7.25;6.70;;;17.50;99.90;;;;;;4120578;28;20053;-83
2022/10/24 20:03:00;;;;;;;9.85;7.38;;;17.50;99.90;;;;;;4137047;28;20081;-83
2022/10/24 20:05:20;;;;;;;10.32;6.00;;;17.60;99.90;;;;;;4124933;28;20096;-83
2022/10/24 20:07:40;;;;;;;6.97;6.47;;;17.50;99.90;;;;;;4141219;28;20121;-83
2022/10/24 20:09:59;;;;;;;7.93;7.20;;;17.60;99.90;;;;;;4129101;28;20049;-83
2022/10/24 20:12:19;;;;;;;7.60;7.10;;;17.60;99.90;;;;;;4134422;28;20046;-83
2022/10/24 20:14:38;;;;;;;11.93;7.30;;;17.60;99.90;;;;;;4133021;28;20364;-83
2022/10/24 20:16:59;;;;;;;7.75;7.35;;;17.70;99.90;;;;;;4126552;28;20159;-83
2022/10/24 20:19:19;;;;;;;7.72;6.72;;;17.60;99.90;;;;;;4127067;28;20085;-83
2022/10/24 20:21:39;;;;;;;7.18;6.63;;;17.60;99.90;;;;;;4125015;28;20050;-83
2022/10/24 20:23:59;;;;;;;6.93;6.40;;;17.70;99.90;;;;;;4133856;28;20107;-83
2022/10/24 20:26:22;;;;;;;7.25;6.57;;;17.70;99.90;;;;;;4120273;28;20113;-83
2022/10/24 20:28:45;;;;;;;6.97;6.40;;;17.70;99.90;;;;;;4131720;28;20103;-83
2022/10/24 20:31:06;;;;;;;7.45;6.43;;;17.60;99.90;;;;;;4128956;28;20049;-83
2022/10/24 20:33:26;;;;;;;7.60;7.00;;;17.70;99.90;;;;;;4114500;28;20066;-83
2022/10/24 20:35:46;;;;;;;7.72;7.28;;;17.70;99.90;;;;;;4139073;28;20455;-83
2022/10/24 20:38:06;;;;;;;11.00;6.90;;;17.70;99.90;;;;;;4136692;28;20053;-83
2022/10/24 20:40:26;;;;;;;7.05;6.45;;;17.70;99.90;;;;;;4133663;28;20056;-83
2022/10/24 20:42:48;;;;;;;6.70;6.07;;;17.70;99.90;;;;;;4130797;28;20329;-83
2022/10/24 20:45:08;;;;;;;7.87;6.93;;;17.60;99.90;;;;;;4116459;28;20139;-83
2022/10/24 20:47:28;;;;;;;7.45;6.43;;;17.60;99.90;;;;;;4131077;28;20062;-83
2022/10/24 20:49:47;;;;;;;6.93;5.88;;;17.60;99.90;;;;;;4138530;28;20089;-83
2022/10/24 20:52:07;;;;;;;7.15;6.68;;;17.60;99.90;;;;;;4135470;28;20371;-83
2022/10/24 20:54:27;;;;;;;6.43;5.93;;;17.60;99.90;;;;;;4132574;28;20106;-83
2022/10/24 20:56:47;;;;;;;6.82;6.35;;;17.50;99.90;;;;;;4128489;28;20135;-83
2022/10/24 20:59:06;;;;;;;8.48;6.93;;;17.60;99.90;;;;;;4126966;28;20372;-83
2022/10/24 21:01:27;;;;;;;9.98;5.88;;;17.60;99.90;;;;;;4125787;28;20049;-83
2022/10/24 21:03:48;;;;;;;8.23;6.90;;;17.60;99.90;;;;;;4137178;28;20368;-83
2022/10/24 21:06:34;;;;;;;6.72;6.03;;;17.50;99.90;;;;;;4131729;28;20081;-83
2022/10/24 21:08:57;;;;;;;6.82;6.10;;;17.50;99.90;;;;;;4124975;28;20101;-83
2022/10/24 21:11:23;;;;;;;;;;;17.50;99.90;;;;;;4137996;28;20045;-83
2022/10/24 21:13:43;;;;;;;13.18;6.47;;;17.40;99.90;;;;;;4135686;28;20230;-83
2022/10/24 21:16:05;;;;;;;8.07;6.70;;;17.50;99.90;;;;;;4135306;28;20069;-83
2022/10/24 21:18:25;;;;;;;6.03;5.72;;;17.50;99.90;;;;;;4121151;28;20050;-83
2022/10/24 21:20:44;;;;;;;7.05;6.55;;;17.50;99.90;;;;;;4132949;28;20085;-83
2022/10/24 21:23:04;;;;;;;9.60;6.53;;;17.50;99.90;;;;;;4124835;28;20053;-83
2022/10/24 21:25:23;;;;;;;6.93;6.22;;;17.40;99.90;;;;;;4137951;28;20054;-83
2022/10/24 21:27:43;;;;;;;7.20;6.35;;;17.50;99.90;;;;;;4125459;28;20106;-83
2022/10/24 21:30:04;;;;;;;6.75;6.20;;;17.50;99.90;;;;;;4123763;28;20061;-83
2022/10/24 21:32:23;;;;;;;7.50;5.25;;;17.50;99.90;;;;;;4129953;28;20282;-83
2022/10/24 21:34:43;;;;;;;8.40;6.07;;;17.40;99.90;;;;;;4132655;28;20053;-83
2022/10/24 21:37:03;;;;;;;5.72;5.18;;;17.40;99.90;;;;;;4135370;28;20062;-83
2022/10/24 21:39:24;;;;;;;7.13;6.47;;;17.40;99.90;;;;;;4126955;28;20054;-83
2022/10/24 21:41:44;;;;;;;6.45;5.80;;;17.40;99.90;;;;;;4135171;28;20222;-83
2022/10/24 21:44:04;;;;;;;7.13;6.55;;;17.40;99.90;;;;;;4137632;28;20106;-83
2022/10/24 21:46:27;;;;;;;10.02;5.70;;;17.40;99.90;;;;;;4134878;28;20046;-83
2022/10/24 21:48:48;;;;;;;13.35;6.13;;;17.40;99.90;;;;;;4130881;28;20053;-83
2022/10/24 21:51:14;;;;;;;7.82;5.53;;;17.40;99.90;;;;;;4129045;28;20038;-83
2022/10/24 21:53:46;;;;;;;6.68;6.28;;;17.50;99.90;;;;;;4111606;28;20049;-83
2022/10/24 21:56:09;;;;;;;7.20;5.05;;;17.40;99.90;;;;;;4126231;28;20230;-83
2022/10/24 21:58:29;;;;;;;6.57;5.97;;;17.40;99.90;;;;;;4128943;28;20069;-83
2022/10/24 22:00:49;;;;;;;6.25;5.75;;;17.40;99.90;;;;;;4118311;28;20127;-83
2022/10/24 22:03:09;;;;;;;6.43;5.70;;;17.40;99.90;;;;;;4130210;28;20054;-83
2022/10/24 22:05:29;;;;;;;9.85;5.40;;;17.30;99.90;;;;;;4120415;28;20127;-83
2022/10/24 22:07:48;;;;;;;5.68;5.20;;;17.40;99.90;;;;;;4125407;28;20049;-83
2022/10/24 22:10:09;;;;;;;5.90;5.40;;;17.40;99.90;;;;;;4137806;28;20395;-83
2022/10/24 22:12:29;;;;;;;7.10;5.75;;;17.40;99.90;;;;;;4124998;28;20041;-83
2022/10/24 22:14:49;;;;;;;5.72;5.32;;;17.40;99.90;;;;;;4132291;28;20045;-83
2022/10/24 22:17:09;;;;;;;11.23;5.88;;;17.40;99.90;;;;;;4120266;28;20427;-83
2022/10/24 22:19:28;;;;;;;7.28;5.07;;;17.50;99.90;;;;;;4137272;28;20053;-83
2022/10/24 22:21:49;;;;;;;6.82;6.10;;;17.60;99.90;;;;;;4118172;28;20042;-83
2022/10/24 22:24:14;;;;;;;9.95;5.38;;;17.50;99.90;;;;;;4125977;28;20069;-83
2022/10/24 22:26:34;;;;;;;7.47;6.15;;;17.40;99.90;;;;;;4128859;28;20072;-83
2022/10/24 22:28:54;;;;;;;7.18;6.18;;;17.40;99.90;;;;;;4123450;28;20079;-83
2022/10/24 22:31:15;;;;;;;7.85;5.10;;;17.40;99.90;;;;;;4128516;28;20225;-83
2022/10/24 22:33:37;;;;;;;7.55;5.95;;;17.30;99.90;;;;;;4111992;28;20086;-83
2022/10/24 22:36:02;;;;;;;8.10;5.50;;;17.30;99.90;;;;;;4125850;28;20042;-83
2022/10/24 22:38:22;;;;;;;8.23;6.13;;;17.30;99.90;;;;;;4127404;28;20045;-83
2022/10/24 22:40:42;;;;;;;6.40;5.82;;;17.30;99.90;;;;;;4130782;28;20085;-83
2022/10/24 22:43:02;;;;;;;12.48;5.93;;;17.30;99.90;;;;;;4118821;28;20050;-83
2022/10/24 22:45:23;;;;;;;11.48;7.20;;;17.30;99.90;;;;;;4135933;28;20056;-83
2022/10/24 22:48:03;;;;;;;9.10;5.43;;;17.20;99.90;;;;;;4138791;28;20054;-83
2022/10/24 22:50:49;;;;;;;13.43;6.03;;;17.20;99.90;;;;;;4134467;28;20045;-83
2022/10/24 22:53:13;;;;;;;7.57;5.70;;;17.10;99.90;;;;;;4134790;28;20081;-83
2022/10/24 22:55:39;;;;;;;8.35;5.85;;;17.10;99.90;;;;;;4123554;28;20085;-83
2022/10/24 22:57:59;;;;;;;6.68;6.15;;;17.10;99.90;;;;;;4129125;28;20146;-83
2022/10/24 23:00:19;;;;;;;8.45;6.13;;;17.10;99.90;;;;;;4123872;28;20383;-83
2022/10/24 23:02:44;;;;;;;7.30;5.88;;;17.00;99.90;;;;;;4135789;28;20249;-83
2022/10/24 23:05:06;;;;;;;11.73;5.68;;;17.10;99.90;;;;;;4130002;28;20356;-83
2022/10/24 23:07:35;;;;;;;7.28;5.68;;;17.10;99.90;;;;;;4132718;28;20235;-83
2022/10/24 23:09:56;;;;;;;5.88;5.47;;;17.00;99.90;;;;;;4136193;28;20046;-83
2022/10/24 23:12:18;;;;;;;7.70;5.97;;;17.00;99.90;;;;;;4138803;28;20045;-83
2022/10/24 23:14:38;;;;;;;6.80;6.18;;;17.00;99.90;;;;;;4125513;28;20050;-83
2022/10/24 23:16:59;;;;;;;6.90;6.25;;;17.30;99.90;;;;;;4140329;28;20415;-83
2022/10/24 23:19:22;;;;;;;9.15;6.13;;;17.20;99.90;;;;;;4137575;28;20065;-83
2022/10/24 23:21:53;;;;;;;7.00;6.35;;;17.10;99.90;;;;;;4132954;28;20041;-83
2022/10/24 23:24:15;;;;;;;6.47;5.80;;;17.10;99.90;;;;;;4132023;28;20041;-83